sensor_id;sensor_type;location;lat;lon;timestamp;temperature;humidity
3492;DHT22;1760;52.480;13.422;2023-02-04T00:00:23;4.90;99.90
3492;DHT22;1760;52.480;13.422;2023-02-04T00:02:50;4.90;99.90
3492;DHT22;1760;52.480;13.422;2023-02-04T00:05:17;4.80;99.90
3492;DHT22;1760;52.480;13.422;2023-02-04T00:07:46;4.80;99.90
3492;DHT22;1760;52.480;13.422;2023-02-04T00:10:13;4.70;99.90
3492;DHT22;1760;52.480;13.422;2023-02-04T00:12:41;4.60;99.90
3492;DHT22;1760;52.480;13.422;2023-02-04T00:15:10;4.50;99.90
3492;DHT22;1760;52.480;13.422;2023-02-04T00:17:37;4.50;99.90
3492;DHT22;1760;52.480;13.422;2023-02-04T00:20:05;4.40;99.90
3492;DHT22;1760;52.480;13.422;2023-02-04T00:22:32;4.30;99.90
3492;DHT22;1760;52.480;13.422;2023-02-04T00:24:59;4.30;99.90
3492;DHT22;1760;52.480;13.422;2023-02-04T00:27:26;4.20;99.90
3492;DHT22;1760;52.480;13.422;2023-02-04T00:29:54;4.20;99.90
3492;DHT22;1760;52.480;13.422;2023-02-04T00:32:22;4.20;99.90
3492;DHT22;1760;52.480;13.422;2023-02-04T00:34:48;4.20;99.90
3492;DHT22;1760;52.480;13.422;2023-02-04T00:37:15;4.20;99.90
3492;DHT22;1760;52.480;13.422;2023-02-04T00:39:42;4.20;99.90
3492;DHT22;1760;52.480;13.422;2023-02-04T00:42:09;4.20;99.90
3492;DHT22;1760;52.480;13.422;2023-02-04T00:44:39;4.20;99.90
3492;DHT22;1760;52.480;13.422;2023-02-04T00:47:07;4.20;99.90
3492;DHT22;1760;52.480;13.422;2023-02-04T00:49:34;4.20;99.90
3492;DHT22;1760;52.480;13.422;2023-02-04T00:52:01;4.10;99.90
3492;DHT22;1760;52.480;13.422;2023-02-04T00:54:28;3.90;99.90
3492;DHT22;1760;52.480;13.422;2023-02-04T00:56:55;3.80;99.90
3492;DHT22;1760;52.480;13.422;2023-02-04T00:59:22;3.80;99.90
3492;DHT22;1760;52.480;13.422;2023-02-04T01:01:49;3.70;99.90
3492;DHT22;1760;52.480;13.422;2023-02-04T01:04:18;3.70;99.90
3492;DHT22;1760;52.480;13.422;2023-02-04T01:06:45;3.60;99.90
3492;DHT22;1760;52.480;13.422;2023-02-04T01:09:12;3.60;99.90
3492;DHT22;1760;52.480;13.422;2023-02-04T01:11:42;3.60;99.90
3492;DHT22;1760;52.480;13.422;2023-02-04T01:14:11;3.50;99.90
3492;DHT22;1760;52.480;13.422;2023-02-04T01:16:38;3.60;99.90
3492;DHT22;1760;52.480;13.422;2023-02-04T01:19:05;3.60;99.90
3492;DHT22;1760;52.480;13.422;2023-02-04T01:21:34;3.60;99.90
3492;DHT22;1760;52.480;13.422;2023-02-04T01:24:01;3.60;99.90
3492;DHT22;1760;52.480;13.422;2023-02-04T01:26:27;3.50;99.90
3492;DHT22;1760;52.480;13.422;2023-02-04T01:28:54;3.50;99.90
3492;DHT22;1760;52.480;13.422;2023-02-04T01:31:21;3.50;99.90
3492;DHT22;1760;52.480;13.422;2023-02-04T01:33:49;3.40;99.90
3492;DHT22;1760;52.480;13.422;2023-02-04T01:36:17;3.40;99.90
3492;DHT22;1760;52.480;13.422;2023-02-04T01:38:47;3.40;99.90
3492;DHT22;1760;52.480;13.422;2023-02-04T01:41:15;3.40;99.90
3492;DHT22;1760;52.480;13.422;2023-02-04T01:43:43;3.40;99.90
3492;DHT22;1760;52.480;13.422;2023-02-04T01:46:10;3.40;99.90
3492;DHT22;1760;52.480;13.422;2023-02-04T01:48:37;3.40;99.90
3492;DHT22;1760;52.480;13.422;2023-02-04T01:51:06;3.40;99.90
3492;DHT22;1760;52.480;13.422;2023-02-04T01:53:36;3.40;99.90
3492;DHT22;1760;52.480;13.422;2023-02-04T01:56:14;3.40;99.90
3492;DHT22;1760;52.480;13.422;2023-02-04T01:58:46;3.50;99.90
3492;DHT22;1760;52.480;13.422;2023-02-04T02:01:15;3.50;99.90
3492;DHT22;1760;52.480;13.422;2023-02-04T02:03:42;3.40;99.90
3492;DHT22;1760;52.480;13.422;2023-02-04T02:06:09;3.40;99.90
3492;DHT22;1760;52.480;13.422;2023-02-04T02:08:37;3.40;99.90
3492;DHT22;1760;52.480;13.422;2023-02-04T02:11:04;3.50;99.90
3492;DHT22;1760;52.480;13.422;2023-02-04T02:13:32;3.50;99.90
3492;DHT22;1760;52.480;13.422;2023-02-04T02:15:59;3.50;99.90
3492;DHT22;1760;52.480;13.422;2023-02-04T02:18:26;3.50;99.90
3492;DHT22;1760;52.480;13.422;2023-02-04T02:20:54;3.60;99.90
3492;DHT22;1760;52.480;13.422;2023-02-04T02:23:26;3.60;99.90
3492;DHT22;1760;52.480;13.422;2023-02-04T02:25:58;3.60;99.90
3492;DHT22;1760;52.480;13.422;2023-02-04T02:28:25;3.60;99.90
3492;DHT22;1760;52.480;13.422;2023-02-04T02:30:53;3.70;99.90
3492;DHT22;1760;52.480;13.422;2023-02-04T02:33:20;3.70;99.90
3492;DHT22;1760;52.480;13.422;2023-02-04T02:35:48;3.70;99.90
3492;DHT22;1760;52.480;13.422;2023-02-04T02:38:15;3.70;99.90
3492;DHT22;1760;52.480;13.422;2023-02-04T02:40:43;3.70;99.90
3492;DHT22;1760;52.480;13.422;2023-02-04T02:43:16;3.70;99.90
3492;DHT22;1760;52.480;13.422;2023-02-04T02:45:43;3.70;99.90
3492;DHT22;1760;52.480;13.422;2023-02-04T02:48:11;3.70;99.90
3492;DHT22;1760;52.480;13.422;2023-02-04T02:50:39;3.70;99.90
3492;DHT22;1760;52.480;13.422;2023-02-04T02:53:12;3.60;99.90
3492;DHT22;1760;52.480;13.422;2023-02-04T02:55:45;3.60;99.90
3492;DHT22;1760;52.480;13.422;2023-02-04T02:58:22;3.60;99.90
3492;DHT22;1760;52.480;13.422;2023-02-04T03:00:50;3.60;99.90
3492;DHT22;1760;52.480;13.422;2023-02-04T03:03:21;3.60;99.90
3492;DHT22;1760;52.480;13.422;2023-02-04T03:05:53;3.50;99.90
3492;DHT22;1760;52.480;13.422;2023-02-04T03:08:21;3.50;99.90
3492;DHT22;1760;52.480;13.422;2023-02-04T03:10:48;3.40;99.90
3492;DHT22;1760;52.480;13.422;2023-02-04T03:13:17;3.40;99.90
3492;DHT22;1760;52.480;13.422;2023-02-04T03:15:46;3.40;99.90
3492;DHT22;1760;52.480;13.422;2023-02-04T03:18:15;3.30;99.90
3492;DHT22;1760;52.480;13.422;2023-02-04T03:20:42;3.30;99.90
3492;DHT22;1760;52.480;13.422;2023-02-04T03:23:12;3.30;99.90
3492;DHT22;1760;52.480;13.422;2023-02-04T03:25:39;3.20;99.90
3492;DHT22;1760;52.480;13.422;2023-02-04T03:28:06;3.20;99.90
3492;DHT22;1760;52.480;13.422;2023-02-04T03:30:34;3.30;99.90
3492;DHT22;1760;52.480;13.422;2023-02-04T03:33:01;3.20;99.90
3492;DHT22;1760;52.480;13.422;2023-02-04T03:35:28;3.20;99.90
3492;DHT22;1760;52.480;13.422;2023-02-04T03:37:55;3.10;99.90
3492;DHT22;1760;52.480;13.422;2023-02-04T03:40:22;3.10;99.90
3492;DHT22;1760;52.480;13.422;2023-02-04T03:42:48;3.10;99.90
3492;DHT22;1760;52.480;13.422;2023-02-04T03:45:15;3.10;99.90
3492;DHT22;1760;52.480;13.422;2023-02-04T03:47:44;3.10;99.90
3492;DHT22;1760;52.480;13.422;2023-02-04T03:50:11;3.10;99.90
3492;DHT22;1760;52.480;13.422;2023-02-04T03:52:38;3.00;99.90
3492;DHT22;1760;52.480;13.422;2023-02-04T03:55:06;3.00;99.90
3492;DHT22;1760;52.480;13.422;2023-02-04T03:57:36;3.00;99.90
3492;DHT22;1760;52.480;13.422;2023-02-04T04:00:07;3.00;99.90
3492;DHT22;1760;52.480;13.422;2023-02-04T04:02:36;3.00;99.90
3492;DHT22;1760;52.480;13.422;2023-02-04T04:05:05;3.00;99.90
3492;DHT22;1760;52.480;13.422;2023-02-04T04:07:33;2.90;99.90
3492;DHT22;1760;52.480;13.422;2023-02-04T04:10:00;2.90;99.90
3492;DHT22;1760;52.480;13.422;2023-02-04T04:12:27;2.90;99.90
3492;DHT22;1760;52.480;13.422;2023-02-04T04:14:54;2.90;99.90
3492;DHT22;1760;52.480;13.422;2023-02-04T04:17:20;2.90;99.90
3492;DHT22;1760;52.480;13.422;2023-02-04T04:19:50;2.90;99.90
3492;DHT22;1760;52.480;13.422;2023-02-04T04:22:22;2.90;99.90
3492;DHT22;1760;52.480;13.422;2023-02-04T04:24:48;2.90;99.90
3492;DHT22;1760;52.480;13.422;2023-02-04T04:27:15;3.00;99.90
3492;DHT22;1760;52.480;13.422;2023-02-04T04:29:42;3.10;99.90
3492;DHT22;1760;52.480;13.422;2023-02-04T04:32:09;3.10;99.90
3492;DHT22;1760;52.480;13.422;2023-02-04T04:34:39;3.10;99.90
3492;DHT22;1760;52.480;13.422;2023-02-04T04:37:07;3.20;99.90
3492;DHT22;1760;52.480;13.422;2023-02-04T04:39:35;3.20;99.90
3492;DHT22;1760;52.480;13.422;2023-02-04T04:42:02;3.30;99.90
3492;DHT22;1760;52.480;13.422;2023-02-04T04:44:29;3.30;99.90
3492;DHT22;1760;52.480;13.422;2023-02-04T04:46:56;3.30;99.90
3492;DHT22;1760;52.480;13.422;2023-02-04T04:49:24;3.30;99.90
3492;DHT22;1760;52.480;13.422;2023-02-04T04:51:50;3.30;99.90
3492;DHT22;1760;52.480;13.422;2023-02-04T04:54:17;3.20;99.90
3492;DHT22;1760;52.480;13.422;2023-02-04T04:56:45;3.20;99.90
3492;DHT22;1760;52.480;13.422;2023-02-04T04:59:12;3.20;99.90
3492;DHT22;1760;52.480;13.422;2023-02-04T05:01:39;3.20;99.90
3492;DHT22;1760;52.480;13.422;2023-02-04T05:04:06;3.20;99.90
3492;DHT22;1760;52.480;13.422;2023-02-04T05:06:33;3.20;99.90
3492;DHT22;1760;52.480;13.422;2023-02-04T05:09:02;3.20;99.90
3492;DHT22;1760;52.480;13.422;2023-02-04T05:11:32;3.20;99.90
3492;DHT22;1760;52.480;13.422;2023-02-04T05:14:00;3.10;99.90
3492;DHT22;1760;52.480;13.422;2023-02-04T05:16:27;3.10;99.90
3492;DHT22;1760;52.480;13.422;2023-02-04T05:18:54;3.10;99.90
3492;DHT22;1760;52.480;13.422;2023-02-04T05:21:21;3.10;99.90
3492;DHT22;1760;52.480;13.422;2023-02-04T05:23:48;3.10;99.90
3492;DHT22;1760;52.480;13.422;2023-02-04T05:26:17;3.00;99.90
3492;DHT22;1760;52.480;13.422;2023-02-04T05:28:45;3.00;99.90
3492;DHT22;1760;52.480;13.422;2023-02-04T05:31:13;3.00;99.90
3492;DHT22;1760;52.480;13.422;2023-02-04T05:33:40;2.90;99.90
3492;DHT22;1760;52.480;13.422;2023-02-04T05:36:07;2.90;99.90
3492;DHT22;1760;52.480;13.422;2023-02-04T05:38:36;2.90;99.90
3492;DHT22;1760;52.480;13.422;2023-02-04T05:41:03;2.90;99.90
3492;DHT22;1760;52.480;13.422;2023-02-04T05:43:30;2.90;99.90
3492;DHT22;1760;52.480;13.422;2023-02-04T05:45:56;2.80;99.90
3492;DHT22;1760;52.480;13.422;2023-02-04T05:48:25;2.80;99.90
3492;DHT22;1760;52.480;13.422;2023-02-04T05:50:52;2.80;99.90
3492;DHT22;1760;52.480;13.422;2023-02-04T05:53:18;2.80;99.90
3492;DHT22;1760;52.480;13.422;2023-02-04T05:55:45;2.80;99.90
3492;DHT22;1760;52.480;13.422;2023-02-04T05:58:12;2.70;99.90
3492;DHT22;1760;52.480;13.422;2023-02-04T06:00:39;2.70;99.90
3492;DHT22;1760;52.480;13.422;2023-02-04T06:03:06;2.70;99.90
3492;DHT22;1760;52.480;13.422;2023-02-04T06:05:35;2.70;99.90
3492;DHT22;1760;52.480;13.422;2023-02-04T06:08:02;2.70;99.90
3492;DHT22;1760;52.480;13.422;2023-02-04T06:10:29;2.70;99.90
3492;DHT22;1760;52.480;13.422;2023-02-04T06:12:55;2.60;99.90
3492;DHT22;1760;52.480;13.422;2023-02-04T06:15:22;2.60;99.90
3492;DHT22;1760;52.480;13.422;2023-02-04T06:17:49;2.60;99.90
3492;DHT22;1760;52.480;13.422;2023-02-04T06:20:18;2.60;99.90
3492;DHT22;1760;52.480;13.422;2023-02-04T06:22:46;2.60;99.90
3492;DHT22;1760;52.480;13.422;2023-02-04T06:25:16;2.60;99.90
3492;DHT22;1760;52.480;13.422;2023-02-04T06:27:43;2.50;99.90
3492;DHT22;1760;52.480;13.422;2023-02-04T06:30:10;2.50;99.90
3492;DHT22;1760;52.480;13.422;2023-02-04T06:32:37;2.60;99.90
3492;DHT22;1760;52.480;13.422;2023-02-04T06:35:05;2.60;99.90
3492;DHT22;1760;52.480;13.422;2023-02-04T06:37:32;2.60;99.90
3492;DHT22;1760;52.480;13.422;2023-02-04T06:40:00;2.50;99.90
3492;DHT22;1760;52.480;13.422;2023-02-04T06:42:27;2.50;99.90
3492;DHT22;1760;52.480;13.422;2023-02-04T06:44:54;2.50;99.90
3492;DHT22;1760;52.480;13.422;2023-02-04T06:47:21;2.50;99.90
3492;DHT22;1760;52.480;13.422;2023-02-04T06:49:48;2.50;99.90
3492;DHT22;1760;52.480;13.422;2023-02-04T06:52:17;2.50;99.90
3492;DHT22;1760;52.480;13.422;2023-02-04T06:54:44;2.50;99.90
3492;DHT22;1760;52.480;13.422;2023-02-04T06:57:13;2.50;99.90
3492;DHT22;1760;52.480;13.422;2023-02-04T06:59:40;2.50;99.90
3492;DHT22;1760;52.480;13.422;2023-02-04T07:02:09;2.50;99.90
3492;DHT22;1760;52.480;13.422;2023-02-04T07:04:38;2.50;99.90
3492;DHT22;1760;52.480;13.422;2023-02-04T07:07:06;2.40;99.90
3492;DHT22;1760;52.480;13.422;2023-02-04T07:09:33;2.40;99.90
3492;DHT22;1760;52.480;13.422;2023-02-04T07:12:00;2.40;99.90
3492;DHT22;1760;52.480;13.422;2023-02-04T07:14:28;2.40;99.90
3492;DHT22;1760;52.480;13.422;2023-02-04T07:16:55;2.50;99.90
3492;DHT22;1760;52.480;13.422;2023-02-04T07:19:23;2.50;99.90
3492;DHT22;1760;52.480;13.422;2023-02-04T07:21:50;2.50;99.90
3492;DHT22;1760;52.480;13.422;2023-02-04T07:24:19;2.50;99.90
3492;DHT22;1760;52.480;13.422;2023-02-04T07:26:48;2.50;99.90
3492;DHT22;1760;52.480;13.422;2023-02-04T07:29:14;2.50;99.90
3492;DHT22;1760;52.480;13.422;2023-02-04T07:31:43;2.50;99.90
3492;DHT22;1760;52.480;13.422;2023-02-04T07:34:10;2.60;99.90
3492;DHT22;1760;52.480;13.422;2023-02-04T07:36:37;2.60;99.90
3492;DHT22;1760;52.480;13.422;2023-02-04T07:39:05;2.60;99.90
3492;DHT22;1760;52.480;13.422;2023-02-04T07:44:09;2.70;99.90
3492;DHT22;1760;52.480;13.422;2023-02-04T07:46:36;2.70;99.90
3492;DHT22;1760;52.480;13.422;2023-02-04T07:49:04;2.70;99.90
3492;DHT22;1760;52.480;13.422;2023-02-04T07:51:31;2.70;99.90
3492;DHT22;1760;52.480;13.422;2023-02-04T07:54:01;2.70;99.90
3492;DHT22;1760;52.480;13.422;2023-02-04T07:56:27;2.70;99.90
3492;DHT22;1760;52.480;13.422;2023-02-04T07:58:55;2.70;99.90
3492;DHT22;1760;52.480;13.422;2023-02-04T08:01:22;2.70;99.90
3492;DHT22;1760;52.480;13.422;2023-02-04T08:03:49;2.80;99.90
3492;DHT22;1760;52.480;13.422;2023-02-04T08:06:17;2.80;99.90
3492;DHT22;1760;52.480;13.422;2023-02-04T08:08:47;2.80;99.90
3492;DHT22;1760;52.480;13.422;2023-02-04T08:11:14;2.90;99.90
3492;DHT22;1760;52.480;13.422;2023-02-04T08:13:40;2.90;99.90
3492;DHT22;1760;52.480;13.422;2023-02-04T08:16:10;2.90;99.90
3492;DHT22;1760;52.480;13.422;2023-02-04T08:18:37;2.90;99.90
3492;DHT22;1760;52.480;13.422;2023-02-04T08:21:04;3.00;99.90
3492;DHT22;1760;52.480;13.422;2023-02-04T08:23:34;2.90;99.90
3492;DHT22;1760;52.480;13.422;2023-02-04T08:26:08;3.00;99.90
3492;DHT22;1760;52.480;13.422;2023-02-04T08:28:35;3.00;99.90
3492;DHT22;1760;52.480;13.422;2023-02-04T08:31:03;3.10;99.90
3492;DHT22;1760;52.480;13.422;2023-02-04T08:33:32;3.10;99.90
3492;DHT22;1760;52.480;13.422;2023-02-04T08:36:03;3.10;99.90
3492;DHT22;1760;52.480;13.422;2023-02-04T08:38:30;3.10;99.90
3492;DHT22;1760;52.480;13.422;2023-02-04T08:40:58;3.10;99.90
3492;DHT22;1760;52.480;13.422;2023-02-04T08:43:25;3.20;99.90
3492;DHT22;1760;52.480;13.422;2023-02-04T08:45:52;3.20;99.90
3492;DHT22;1760;52.480;13.422;2023-02-04T08:48:21;3.20;99.90
3492;DHT22;1760;52.480;13.422;2023-02-04T08:50:48;3.30;99.90
3492;DHT22;1760;52.480;13.422;2023-02-04T08:53:15;3.40;99.90
3492;DHT22;1760;52.480;13.422;2023-02-04T08:55:42;3.40;99.90
3492;DHT22;1760;52.480;13.422;2023-02-04T08:58:10;3.40;99.90
3492;DHT22;1760;52.480;13.422;2023-02-04T09:00:37;3.50;99.90
3492;DHT22;1760;52.480;13.422;2023-02-04T09:03:04;3.60;99.90
3492;DHT22;1760;52.480;13.422;2023-02-04T09:05:30;3.60;99.90
3492;DHT22;1760;52.480;13.422;2023-02-04T09:07:57;3.60;99.90
3492;DHT22;1760;52.480;13.422;2023-02-04T09:10:26;3.70;99.90
3492;DHT22;1760;52.480;13.422;2023-02-04T09:12:53;3.80;99.90
3492;DHT22;1760;52.480;13.422;2023-02-04T09:15:22;3.80;99.90
3492;DHT22;1760;52.480;13.422;2023-02-04T09:17:49;3.90;99.90
3492;DHT22;1760;52.480;13.422;2023-02-04T09:20:18;3.90;99.90
3492;DHT22;1760;52.480;13.422;2023-02-04T09:22:46;4.00;99.90
3492;DHT22;1760;52.480;13.422;2023-02-04T09:25:14;4.00;99.90
3492;DHT22;1760;52.480;13.422;2023-02-04T09:27:41;4.10;99.90
3492;DHT22;1760;52.480;13.422;2023-02-04T09:30:09;4.10;99.90
3492;DHT22;1760;52.480;13.422;2023-02-04T09:32:37;4.20;99.90
3492;DHT22;1760;52.480;13.422;2023-02-04T09:35:04;4.30;99.90
3492;DHT22;1760;52.480;13.422;2023-02-04T09:37:31;4.40;99.90
3492;DHT22;1760;52.480;13.422;2023-02-04T09:39:58;4.50;99.90
3492;DHT22;1760;52.480;13.422;2023-02-04T09:42:25;4.70;99.90
3492;DHT22;1760;52.480;13.422;2023-02-04T09:44:52;4.90;99.90
3492;DHT22;1760;52.480;13.422;2023-02-04T09:47:21;5.10;99.90
3492;DHT22;1760;52.480;13.422;2023-02-04T09:49:50;5.30;99.90
3492;DHT22;1760;52.480;13.422;2023-02-04T09:52:21;5.40;99.90
3492;DHT22;1760;52.480;13.422;2023-02-04T09:54:49;5.80;99.90
3492;DHT22;1760;52.480;13.422;2023-02-04T09:57:17;6.70;99.90
3492;DHT22;1760;52.480;13.422;2023-02-04T09:59:47;7.50;99.90
3492;DHT22;1760;52.480;13.422;2023-02-04T10:02:21;8.40;99.90
3492;DHT22;1760;52.480;13.422;2023-02-04T10:04:52;9.40;99.90
3492;DHT22;1760;52.480;13.422;2023-02-04T10:07:22;9.40;99.90
3492;DHT22;1760;52.480;13.422;2023-02-04T10:09:51;9.60;99.90
3492;DHT22;1760;52.480;13.422;2023-02-04T10:12:19;10.50;99.90
3492;DHT22;1760;52.480;13.422;2023-02-04T10:14:47;11.50;99.90
3492;DHT22;1760;52.480;13.422;2023-02-04T10:17:16;12.00;99.90
3492;DHT22;1760;52.480;13.422;2023-02-04T10:19:44;12.60;99.90
3492;DHT22;1760;52.480;13.422;2023-02-04T10:22:16;13.00;98.50
3492;DHT22;1760;52.480;13.422;2023-02-04T10:24:43;13.40;96.10
3492;DHT22;1760;52.480;13.422;2023-02-04T10:27:12;13.40;94.70
3492;DHT22;1760;52.480;13.422;2023-02-04T10:29:40;13.60;93.10
3492;DHT22;1760;52.480;13.422;2023-02-04T10:32:25;13.50;92.20
3492;DHT22;1760;52.480;13.422;2023-02-04T10:34:56;13.30;92.40
3492;DHT22;1760;52.480;13.422;2023-02-04T10:37:27;12.40;93.00
3492;DHT22;1760;52.480;13.422;2023-02-04T10:39:55;11.60;95.50
3492;DHT22;1760;52.480;13.422;2023-02-04T10:42:23;10.60;97.70
3492;DHT22;1760;52.480;13.422;2023-02-04T10:44:51;9.60;99.90
3492;DHT22;1760;52.480;13.422;2023-02-04T10:47:21;8.80;99.90
3492;DHT22;1760;52.480;13.422;2023-02-04T10:49:53;8.20;99.90
3492;DHT22;1760;52.480;13.422;2023-02-04T10:52:22;8.30;99.90
3492;DHT22;1760;52.480;13.422;2023-02-04T10:54:51;8.90;99.90
3492;DHT22;1760;52.480;13.422;2023-02-04T10:57:21;9.20;99.90
3492;DHT22;1760;52.480;13.422;2023-02-04T10:59:50;9.30;99.90
3492;DHT22;1760;52.480;13.422;2023-02-04T11:02:38;9.00;99.90
3492;DHT22;1760;52.480;13.422;2023-02-04T11:05:11;8.80;99.90
3492;DHT22;1760;52.480;13.422;2023-02-04T11:07:39;8.70;99.90
3492;DHT22;1760;52.480;13.422;2023-02-04T11:10:11;8.40;99.90
3492;DHT22;1760;52.480;13.422;2023-02-04T11:12:43;8.00;99.90
3492;DHT22;1760;52.480;13.422;2023-02-04T11:18:29;8.70;99.90
3492;DHT22;1760;52.480;13.422;2023-02-04T11:20:57;8.50;99.90
3492;DHT22;1760;52.480;13.422;2023-02-04T11:23:35;8.30;99.90
3492;DHT22;1760;52.480;13.422;2023-02-04T11:26:09;7.80;99.90
3492;DHT22;1760;52.480;13.422;2023-02-04T11:28:50;7.50;99.90
3492;DHT22;1760;52.480;13.422;2023-02-04T11:31:41;7.40;99.90
3492;DHT22;1760;52.480;13.422;2023-02-04T11:34:11;7.10;99.90
3492;DHT22;1760;52.480;13.422;2023-02-04T11:36:56;6.90;99.90
3492;DHT22;1760;52.480;13.422;2023-02-04T11:39:31;6.60;99.90
3492;DHT22;1760;52.480;13.422;2023-02-04T11:42:01;6.40;99.90
3492;DHT22;1760;52.480;13.422;2023-02-04T11:44:29;6.10;99.90
3492;DHT22;1760;52.480;13.422;2023-02-04T11:46:57;6.10;99.90
3492;DHT22;1760;52.480;13.422;2023-02-04T11:49:27;6.20;99.90
3492;DHT22;1760;52.480;13.422;2023-02-04T11:52:03;6.20;99.90
3492;DHT22;1760;52.480;13.422;2023-02-04T11:54:33;6.20;99.90
3492;DHT22;1760;52.480;13.422;2023-02-04T11:57:02;6.10;99.90
3492;DHT22;1760;52.480;13.422;2023-02-04T11:59:29;6.10;99.90
3492;DHT22;1760;52.480;13.422;2023-02-04T12:02:03;6.00;99.90
3492;DHT22;1760;52.480;13.422;2023-02-04T12:04:34;5.90;99.90
3492;DHT22;1760;52.480;13.422;2023-02-04T12:07:02;5.90;99.90
3492;DHT22;1760;52.480;13.422;2023-02-04T12:09:30;5.80;99.90
3492;DHT22;1760;52.480;13.422;2023-02-04T12:11:59;5.80;99.90
3492;DHT22;1760;52.480;13.422;2023-02-04T12:14:33;5.80;99.90
3492;DHT22;1760;52.480;13.422;2023-02-04T12:17:11;5.70;99.90
3492;DHT22;1760;52.480;13.422;2023-02-04T12:19:38;5.70;99.90
3492;DHT22;1760;52.480;13.422;2023-02-04T12:22:08;5.70;99.90
3492;DHT22;1760;52.480;13.422;2023-02-04T12:24:35;5.80;99.90
3492;DHT22;1760;52.480;13.422;2023-02-04T12:27:04;6.00;99.90
3492;DHT22;1760;52.480;13.422;2023-02-04T12:29:32;6.10;99.90
3492;DHT22;1760;52.480;13.422;2023-02-04T12:31:59;6.20;99.90
3492;DHT22;1760;52.480;13.422;2023-02-04T12:34:28;6.20;99.90
3492;DHT22;1760;52.480;13.422;2023-02-04T12:36:58;6.20;99.90
3492;DHT22;1760;52.480;13.422;2023-02-04T12:39:26;6.10;99.90
3492;DHT22;1760;52.480;13.422;2023-02-04T12:41:56;6.00;99.90
3492;DHT22;1760;52.480;13.422;2023-02-04T12:44:23;6.00;99.90
3492;DHT22;1760;52.480;13.422;2023-02-04T12:46:54;6.00;99.90
3492;DHT22;1760;52.480;13.422;2023-02-04T12:49:21;6.00;99.90
3492;DHT22;1760;52.480;13.422;2023-02-04T12:51:49;5.90;99.90
3492;DHT22;1760;52.480;13.422;2023-02-04T12:54:16;5.80;99.90
3492;DHT22;1760;52.480;13.422;2023-02-04T12:56:43;5.80;99.90
3492;DHT22;1760;52.480;13.422;2023-02-04T12:59:10;5.70;99.90
3492;DHT22;1760;52.480;13.422;2023-02-04T13:01:37;5.70;99.90
3492;DHT22;1760;52.480;13.422;2023-02-04T13:04:05;5.80;99.90
3492;DHT22;1760;52.480;13.422;2023-02-04T13:06:32;5.80;99.90
3492;DHT22;1760;52.480;13.422;2023-02-04T13:08:59;5.80;99.90
3492;DHT22;1760;52.480;13.422;2023-02-04T13:11:26;5.80;99.90
3492;DHT22;1760;52.480;13.422;2023-02-04T13:13:52;5.80;99.90
3492;DHT22;1760;52.480;13.422;2023-02-04T13:16:19;5.70;99.90
3492;DHT22;1760;52.480;13.422;2023-02-04T13:18:48;5.70;99.90
3492;DHT22;1760;52.480;13.422;2023-02-04T13:21:17;5.70;99.90
3492;DHT22;1760;52.480;13.422;2023-02-04T13:23:43;5.60;99.90
3492;DHT22;1760;52.480;13.422;2023-02-04T13:26:10;5.60;99.90
3492;DHT22;1760;52.480;13.422;2023-02-04T13:28:37;5.50;99.90
3492;DHT22;1760;52.480;13.422;2023-02-04T13:31:04;5.50;99.90
3492;DHT22;1760;52.480;13.422;2023-02-04T13:33:31;5.50;99.90
3492;DHT22;1760;52.480;13.422;2023-02-04T13:35:58;5.50;99.90
3492;DHT22;1760;52.480;13.422;2023-02-04T13:38:26;5.50;99.90
3492;DHT22;1760;52.480;13.422;2023-02-04T13:40:53;5.40;99.90
3492;DHT22;1760;52.480;13.422;2023-02-04T13:43:20;5.40;99.90
3492;DHT22;1760;52.480;13.422;2023-02-04T13:45:48;5.40;99.90
3492;DHT22;1760;52.480;13.422;2023-02-04T13:48:15;5.40;99.90
3492;DHT22;1760;52.480;13.422;2023-02-04T13:50:43;5.40;99.90
3492;DHT22;1760;52.480;13.422;2023-02-04T13:53:09;5.40;99.90
3492;DHT22;1760;52.480;13.422;2023-02-04T13:55:38;5.40;99.90
3492;DHT22;1760;52.480;13.422;2023-02-04T13:58:05;5.40;99.90
3492;DHT22;1760;52.480;13.422;2023-02-04T14:00:31;5.30;99.90
3492;DHT22;1760;52.480;13.422;2023-02-04T14:02:58;5.20;99.90
3492;DHT22;1760;52.480;13.422;2023-02-04T14:05:25;5.20;99.90
3492;DHT22;1760;52.480;13.422;2023-02-04T14:07:52;5.20;99.90
3492;DHT22;1760;52.480;13.422;2023-02-04T14:10:19;5.30;99.90
3492;DHT22;1760;52.480;13.422;2023-02-04T14:12:50;5.40;99.90
3492;DHT22;1760;52.480;13.422;2023-02-04T14:15:17;5.40;99.90
3492;DHT22;1760;52.480;13.422;2023-02-04T14:17:44;5.50;99.90
3492;DHT22;1760;52.480;13.422;2023-02-04T14:20:11;5.60;99.90
3492;DHT22;1760;52.480;13.422;2023-02-04T14:22:38;5.70;99.90
3492;DHT22;1760;52.480;13.422;2023-02-04T14:25:05;5.80;99.90
3492;DHT22;1760;52.480;13.422;2023-02-04T14:27:34;5.90;99.90
3492;DHT22;1760;52.480;13.422;2023-02-04T14:30:08;6.00;99.90
3492;DHT22;1760;52.480;13.422;2023-02-04T14:32:35;6.00;99.90
3492;DHT22;1760;52.480;13.422;2023-02-04T14:35:02;6.00;99.90
3492;DHT22;1760;52.480;13.422;2023-02-04T14:37:32;5.90;99.90
3492;DHT22;1760;52.480;13.422;2023-02-04T14:39:58;5.80;99.90
3492;DHT22;1760;52.480;13.422;2023-02-04T14:42:25;5.80;99.90
3492;DHT22;1760;52.480;13.422;2023-02-04T14:44:52;5.70;99.90
3492;DHT22;1760;52.480;13.422;2023-02-04T14:47:20;5.60;99.90
3492;DHT22;1760;52.480;13.422;2023-02-04T14:49:47;5.50;99.90
3492;DHT22;1760;52.480;13.422;2023-02-04T14:52:14;5.40;99.90
3492;DHT22;1760;52.480;13.422;2023-02-04T14:54:41;5.40;99.90
3492;DHT22;1760;52.480;13.422;2023-02-04T14:57:11;5.30;99.90
3492;DHT22;1760;52.480;13.422;2023-02-04T14:59:38;5.20;99.90
3492;DHT22;1760;52.480;13.422;2023-02-04T15:02:05;5.10;99.90
3492;DHT22;1760;52.480;13.422;2023-02-04T15:04:35;5.10;99.90
3492;DHT22;1760;52.480;13.422;2023-02-04T15:07:02;5.00;99.90
3492;DHT22;1760;52.480;13.422;2023-02-04T15:09:29;5.00;99.90
3492;DHT22;1760;52.480;13.422;2023-02-04T15:11:58;4.90;99.90
3492;DHT22;1760;52.480;13.422;2023-02-04T15:14:25;4.80;99.90
3492;DHT22;1760;52.480;13.422;2023-02-04T15:16:52;4.80;99.90
3492;DHT22;1760;52.480;13.422;2023-02-04T15:19:19;4.80;99.90
3492;DHT22;1760;52.480;13.422;2023-02-04T15:21:49;4.70;99.90
3492;DHT22;1760;52.480;13.422;2023-02-04T15:24:16;4.70;99.90
3492;DHT22;1760;52.480;13.422;2023-02-04T15:26:45;4.80;99.90
3492;DHT22;1760;52.480;13.422;2023-02-04T15:29:13;4.70;99.90
3492;DHT22;1760;52.480;13.422;2023-02-04T15:31:42;4.70;99.90
3492;DHT22;1760;52.480;13.422;2023-02-04T15:34:11;4.70;99.90
3492;DHT22;1760;52.480;13.422;2023-02-04T15:36:38;4.60;99.90
3492;DHT22;1760;52.480;13.422;2023-02-04T15:39:06;4.50;99.90
3492;DHT22;1760;52.480;13.422;2023-02-04T15:41:39;4.50;99.90
3492;DHT22;1760;52.480;13.422;2023-02-04T15:44:06;4.40;99.90
3492;DHT22;1760;52.480;13.422;2023-02-04T15:46:33;4.40;99.90
3492;DHT22;1760;52.480;13.422;2023-02-04T15:49:00;4.40;99.90
3492;DHT22;1760;52.480;13.422;2023-02-04T15:51:28;4.40;99.90
3492;DHT22;1760;52.480;13.422;2023-02-04T15:53:57;4.40;99.90
3492;DHT22;1760;52.480;13.422;2023-02-04T15:56:25;4.30;99.90
3492;DHT22;1760;52.480;13.422;2023-02-04T15:58:52;4.30;99.90
3492;DHT22;1760;52.480;13.422;2023-02-04T16:01:20;4.30;99.90
3492;DHT22;1760;52.480;13.422;2023-02-04T16:03:47;4.20;99.90
3492;DHT22;1760;52.480;13.422;2023-02-04T16:06:15;4.20;99.90
3492;DHT22;1760;52.480;13.422;2023-02-04T16:08:42;4.10;99.90
3492;DHT22;1760;52.480;13.422;2023-02-04T16:11:09;4.10;99.90
3492;DHT22;1760;52.480;13.422;2023-02-04T16:13:37;4.00;99.90